Latest Weather Observations for Wilcannia Airport

IDN60801

Issued at 3:03 pm EST Thursday 2 July 2015 (issued every 30 minutes, with the page automatically refreshed every 10 minutes)

About weather observations | Map of weather stations | Latest weather observations for NSW | Other Formats
Station Details ID: 046012 Name: WILCANNIA AERODROME AWS Lat: -31.52 Lon: 143.38 Height: 94.3 m
Data from the previous 72 hours. | See also: Recent months for locations in New South Wales
Date/Time
EST
Temp
°C
App
Temp
°C
Dew
Point
Rel
Hum
%
Delta-T
°C
Wind Press
QNH
hPa
Press
MSL
hPa
Rain
since 9 am
mm
Dir
 
Spd
km/h
Gust
km/h
Spd
kts
Gust
kts
02/03:00pm 16.4 11.8 3.8 43 5.8 SW 17 24 9 13 1026.5 1026.6 0.0
02/02:30pm 16.0 11.3 3.4 43 5.8 SW 17 22 9 12 1026.4 1026.5 0.0
02/02:00pm 15.6 10.9 3.1 43 5.7 SSW 17 24 9 13 1026.4 1026.5 0.0
02/01:30pm 15.7 11.9 3.8 45 5.5 SW 13 20 7 11 1026.8 1026.9 0.0
02/01:00pm 14.7 10.7 2.9 45 5.3 SW 13 19 7 10 1027.0 1027.1 0.0
02/12:30pm 14.2 9.8 2.8 46 5.1 SSW 15 22 8 12 1027.7 1027.8 0.0
02/12:00pm 13.5 8.4 3.3 50 4.6 SSW 19 26 10 14 1028.4 1028.5 0.0
02/11:30am 13.0 8.4 3.7 53 4.2 SW 17 24 9 13 1028.5 1028.6 0.0
02/11:00am 12.3 7.6 3.3 54 4.0 SW 17 24 9 13 1028.9 1029.0 0.0
02/10:30am 11.5 7.5 3.0 56 3.7 SW 13 17 7 9 1028.8 1028.9 0.0
02/10:00am 10.0 6.8 3.3 63 2.9 SW 9 13 5 7 1029.1 1029.2 0.0
02/09:30am 8.0 4.5 3.3 72 2.0 WSW 11 13 6 7 1029.0 1029.1 0.0
02/09:00am 6.6 3.5 3.8 82 1.2 WSW 9 11 5 6 1028.9 1029.0 0.6
02/08:30am 4.7 1.5 3.0 89 0.7 WSW 9 11 5 6 1028.6 1028.7 0.6
02/08:00am 2.7 -1.1 1.7 93 0.4 WSW 11 13 6 7 1028.4 1028.5 0.6
02/07:30am 2.0 -2.3 1.1 94 0.3 W 13 13 7 7 1027.8 1027.9 0.6
02/07:00am 1.8 -2.2 0.6 92 0.4 WNW 11 11 6 6 1027.2 1027.3 0.6
02/06:30am 2.3 -1.6 1.1 92 0.5 W 11 13 6 7 1027.1 1027.2 0.6
02/06:00am 2.5 -1.4 1.2 91 0.5 W 11 11 6 6 1026.7 1026.8 0.6
02/05:30am 3.3 -0.8 2.0 91 0.5 W 13 15 7 8 1026.8 1026.9 0.6
02/05:00am 3.8 0.5 2.3 90 0.6 WNW 9 11 5 6 1026.5 1026.6 0.6
02/04:30am 4.2 0.9 2.7 90 0.6 WNW 9 11 5 6 1026.8 1026.9 0.6
02/04:00am 4.0 0.7 2.7 91 0.5 WNW 9 13 5 7 1026.8 1026.9 0.6
02/03:30am 3.8 0.1 2.6 92 0.5 W 11 13 6 7 1027.1 1027.2 0.6
02/03:00am 3.6 -0.1 2.4 92 0.5 W 11 13 6 7 1027.2 1027.3 0.6
02/02:30am 3.5 -0.2 2.2 91 0.5 W 11 13 6 7 1027.1 1027.2 0.6
02/02:00am 3.4 -0.3 2.1 91 0.5 W 11 13 6 7 1027.2 1027.3 0.6
02/01:30am 3.3 -0.4 2.1 92 0.5 W 11 13 6 7 1027.4 1027.5 0.6
02/01:00am 3.5 0.2 2.2 91 0.5 W 9 11 5 6 1027.4 1027.5 0.6
02/12:30am 3.5 0.2 2.3 92 0.5 W 9 11 5 6 1027.7 1027.8 0.6
02/12:00am 3.4 0.4 1.9 90 0.6 W 7 9 4 5 1027.6 1027.7 0.6
 
Date/Time
EST
Temp
°C
App
Temp
°C
Dew
Point
Rel
Hum
%
Delta-T
°C
Wind Press
QNH
hPa
Press
MSL
hPa
Rain
since 9 am
mm
Dir
 
Spd
km/h
Gust
km/h
Spd
kts
Gust
kts
01/11:30pm 3.5 0.5 2.0 90 0.6 W 7 11 4 6 1027.9 1028.0 0.6
01/11:00pm 4.0 0.7 2.5 90 0.6 W 9 11 5 6 1028.0 1028.1 0.6
01/10:30pm 4.3 1.0 2.3 87 0.8 W 9 11 5 6 1028.1 1028.2 0.6
01/10:00pm 4.9 2.1 3.1 88 0.7 W 7 9 4 5 1028.1 1028.2 0.6
01/09:30pm 5.4 2.3 3.6 88 0.8 W 9 11 5 6 1028.0 1028.1 0.6
01/09:00pm 5.3 2.2 3.6 89 0.7 W 9 11 5 6 1028.1 1028.2 0.6
01/08:30pm 4.9 1.7 3.1 88 0.7 S 9 9 5 5 1028.0 1028.1 0.6
01/08:00pm 5.6 2.4 2.9 83 1.1 SW 9 11 5 6 1028.0 1028.1 0.6
01/07:30pm 6.1 3.4 3.6 84 1.1 SW 7 7 4 4 1027.8 1027.9 0.6
01/07:00pm 6.7 3.5 3.0 77 1.5 SW 9 9 5 5 1027.4 1027.5 0.6
01/06:30pm 8.1 4.7 3.8 74 1.9 SW 11 11 6 6 1027.5 1027.6 0.6
01/06:00pm 8.5 5.4 3.6 71 2.1 SSW 9 9 5 5 1027.1 1027.2 0.6
01/05:30pm 9.7 6.6 3.7 66 2.6 SSW 9 11 5 6 1027.1 1027.2 0.6
01/05:00pm 10.9 7.8 3.7 61 3.2 SSW 9 13 5 7 1027.0 1027.1 0.6
01/04:30pm 11.8 7.7 2.5 53 4.0 SSW 13 17 7 9 1026.8 1026.9 0.6
01/04:00pm 12.4 7.2 2.3 50 4.4 SSW 19 24 10 13 1027.0 1027.1 0.6
01/03:30pm 13.4 8.5 2.3 47 4.9 SW 17 22 9 12 1026.9 1027.0 0.6
01/03:00pm 13.6 7.8 2.5 47 4.9 SW 22 32 12 17 1027.2 1027.3 0.6
01/02:30pm 14.1 9.0 3.3 48 4.9 WSW 19 28 10 15 1027.5 1027.6 0.6
01/02:00pm 13.5 8.2 2.1 46 5.0 SW 19 30 10 16 1027.9 1028.0 0.6
01/01:30pm 13.4 8.9 2.3 47 4.9 SW 15 24 8 13 1028.3 1028.4 0.6
01/01:00pm 13.2 9.6 2.7 49 4.6 SW 11 19 6 10 1028.8 1028.9 0.6
01/12:30pm 13.3 9.5 3.7 52 4.3 SW 13 20 7 11 1029.3 1029.4 0.6
01/12:00pm 12.6 9.2 1.6 47 4.7 SW 9 17 5 9 1029.7 1029.8 0.6
01/11:30am 12.5 8.9 2.9 52 4.2 SSW 11 17 6 9 1030.3 1030.4 0.6
01/11:00am 11.4 8.7 3.7 59 3.4 S 7 11 4 6 1030.3 1030.4 0.6
01/10:30am 9.7 7.0 3.9 67 2.6 SSW 7 9 4 5 1030.7 1030.8 0.6
01/10:00am 7.9 5.4 4.5 79 1.5 SSW 7 11 4 6 1030.7 1030.8 0.0
01/09:30am 6.5 3.9 4.3 86 1.0 SW 7 9 4 5 1030.6 1030.7 0.0
01/09:00am 4.9 2.1 3.4 90 0.6 WSW 7 9 4 5 1030.6 1030.7 0.2
01/08:30am 3.4 0.5 2.5 94 0.4 SW 7 9 4 5 1030.2 1030.3 0.2
01/08:00am 1.8 -2.1 1.2 96 0.2 WSW 11 13 6 7 1030.1 1030.2 0.0
01/07:30am 1.0 -3.0 0.3 95 0.3 WSW 11 13 6 7 1029.9 1030.0 0.0
01/07:00am 1.0 -3.4 0.3 95 0.3 WSW 13 15 7 8 1030.0 1030.1 0.0
01/06:30am 1.2 -3.2 0.6 96 0.2 WSW 13 15 7 8 1029.6 1029.7 0.0
01/06:00am 1.2 -2.8 0.5 95 0.3 WSW 11 13 6 7 1029.2 1029.3 0.0
01/05:30am 1.4 -2.6 0.8 96 0.2 WSW 11 11 6 6 1028.8 1028.9 0.0
01/05:00am 0.9 -2.4 0.2 95 0.3 WSW 7 9 4 5 1028.5 1028.6 0.0
01/04:30am 0.9 -2.2 -0.1 93 0.4 WSW 6 7 3 4 1028.5 1028.6 0.0
01/04:00am 1.4 -1.8 0.5 94 0.3 WSW 7 7 4 4 1028.6 1028.7 0.0
01/03:30am 1.7 -1.5 0.8 94 0.3 WSW 7 9 4 5 1028.7 1028.8 0.0
01/03:00am 1.8 -1.4 0.8 93 0.4 SW 7 9 4 5 1028.8 1028.9 0.0
01/02:30am 2.2 -1.3 1.2 93 0.4 WSW 9 11 5 6 1028.9 1029.0 0.0
01/02:00am 2.6 -1.2 1.6 93 0.4 SW 11 11 6 6 1028.9 1029.0 0.0
01/01:30am 2.8 -0.6 1.8 93 0.4 SSW 9 11 5 6 1029.0 1029.1 0.0
01/01:00am 3.0 -0.8 2.0 93 0.4 SW 11 13 6 7 1029.2 1029.3 0.0
01/12:30am 3.3 -0.4 2.1 92 0.5 SW 11 11 6 6 1029.3 1029.4 0.0
01/12:00am 3.8 0.1 2.6 92 0.5 SW 11 13 6 7 1029.5 1029.6 0.0
 
Date/Time
EST
Temp
°C
App
Temp
°C
Dew
Point
Rel
Hum
%
Delta-T
°C
Wind Press
QNH
hPa
Press
MSL
hPa
Rain
since 9 am
mm
Dir
 
Spd
km/h
Gust
km/h
Spd
kts
Gust
kts
30/11:30pm 4.0 0.4 2.8 92 0.5 WSW 11 11 6 6 1029.5 1029.6 0.0
30/11:00pm 4.3 0.7 3.0 91 0.5 SW 11 13 6 7 1029.6 1029.7 0.0
30/10:30pm 4.7 2.0 3.5 92 0.5 SW 7 9 4 5 1029.6 1029.7 0.0
30/10:00pm 4.2 1.2 2.2 87 0.8 S 7 9 4 5 1029.6 1029.7 0.0
30/09:30pm 5.8 2.6 3.3 84 1.0 S 9 11 5 6 1029.4 1029.5 0.0
30/09:00pm 6.5 3.1 3.8 83 1.1 S 11 11 6 6 1029.3 1029.4 0.0
30/08:30pm 7.3 3.9 3.9 79 1.5 SSE 11 11 6 6 1029.2 1029.3 0.0
30/08:00pm 8.5 5.5 4.3 75 1.8 SSE 9 11 5 6 1029.2 1029.3 0.0
30/07:30pm 9.8 6.9 4.6 70 2.3 S 9 13 5 7 1029.1 1029.2 0.0
30/07:00pm 10.6 7.3 4.7 67 2.6 S 11 15 6 8 1029.0 1029.1 0.0
30/06:30pm 10.8 7.5 4.5 65 2.8 S 11 15 6 8 1028.7 1028.8 0.0
30/06:00pm 11.1 8.3 5.0 66 2.8 SSE 9 13 5 7 1028.5 1028.6 0.0
30/05:30pm 11.4 8.6 5.1 65 2.9 SSE 9 13 5 7 1028.1 1028.2 0.0
30/05:00pm 11.9 8.7 5.1 63 3.1 S 11 15 6 8 1028.2 1028.3 0.0
30/04:30pm 12.3 8.8 5.5 63 3.2 SSE 13 20 7 11 1027.9 1028.0 0.0
30/04:00pm 12.5 9.1 5.7 63 3.2 SSE 13 20 7 11 1027.9 1028.0 0.0
30/03:30pm 12.7 8.5 5.6 62 3.3 SSE 17 22 9 12 1027.7 1027.8 0.0
30/03:00pm 13.5 9.0 6.1 61 3.5 SSE 19 22 10 12 1027.4 1027.5 0.0
30/02:30pm 13.6 9.4 5.5 58 3.8 SSE 17 24 9 13 1027.5 1027.6 0.0
30/02:00pm 13.1 8.8 5.3 59 3.6 S 17 24 9 13 1027.6 1027.7 0.0
30/01:30pm 12.7 8.7 5.1 60 3.5 SSE 15 20 8 11 1027.8 1027.9 0.0
30/01:00pm 12.6 8.3 5.3 61 3.4 SSE 17 24 9 13 1027.9 1028.0 0.0
30/12:30pm 12.5 7.8 5.0 60 3.5 S 19 22 10 12 1028.7 1028.8 0.0
30/12:00pm 12.8 8.1 5.0 59 3.6 SSE 19 24 10 13 1028.9 1029.0 0.0
30/11:30am 13.4 8.9 6.0 61 3.5 SSE 19 26 10 14 1029.3 1029.4 0.0
30/11:00am 12.7 7.9 5.6 62 3.3 SSE 20 28 11 15 1029.6 1029.7 0.0
30/10:30am 11.1 7.3 5.6 69 2.6 SSE 15 20 8 11 1030.2 1030.3 0.0
30/10:00am 10.8 6.8 6.6 75 2.0 S 17 22 9 12 1030.0 1030.1 0.0
30/09:30am 10.0 6.3 6.2 77 1.8 SSE 15 20 8 11 1029.6 1029.7 0.0
30/09:00am 9.1 6.2 6.5 84 1.2 S 11 17 6 9 1029.7 1029.8 0.0
30/08:30am 8.7 5.0 6.5 86 1.0 S 15 19 8 10 1029.2 1029.3 0.0
30/08:00am 7.8 5.3 6.4 91 0.6 S 9 11 5 6 1029.4 1029.5 0.0
30/07:30am 7.4 4.3 5.7 89 0.8 S 11 13 6 7 1029.0 1029.1 0.0
30/07:00am 8.1 4.4 6.4 89 0.8 SE 15 20 8 11 1028.2 1028.3 0.0
30/06:30am 8.2 5.6 6.3 88 0.9 S 9 13 5 7 1028.2 1028.3 0.0
30/06:00am 8.0 6.1 6.6 91 0.6 S 6 7 3 4 1028.1 1028.2 0.0
30/05:30am 7.7 5.8 6.5 92 0.6 SW 6 7 3 4 1028.0 1028.1 0.0
30/05:00am 7.4 4.8 6.2 92 0.5 SSW 9 11 5 6 1027.7 1027.8 0.0
30/04:30am 7.6 5.4 6.1 90 0.7 S 7 9 4 5 1027.7 1027.8 0.0
30/04:00am 7.7 4.8 6.3 91 0.6 SSW 11 13 6 7 1027.8 1027.9 0.0
30/03:30am 7.7 6.9 6.3 91 0.6 CALM 0 0 0 0 1028.0 1028.1 0.0
30/03:00am 8.0 5.4 6.3 89 0.8 SSW 9 11 5 6 1028.1 1028.2 0.0
30/02:30am 8.0 5.9 6.5 90 0.7 SSE 7 9 4 5 1028.1 1028.2 0.0
30/02:00am 8.1 6.2 6.7 91 0.6 SSW 6 9 3 5 1028.3 1028.4 0.0
30/01:30am 8.3 5.9 7.2 93 0.5 SSW 9 9 5 5 1028.4 1028.5 0.0
30/01:00am 8.5 7.1 7.4 93 0.5 S 4 6 2 3 1028.6 1028.7 0.0
30/12:30am 8.4 6.5 7.5 94 0.4 S 7 9 4 5 1028.8 1028.9 0.0
30/12:00am 8.3 6.5 7.1 92 0.6 S 6 7 3 4 1029.1 1029.2 0.0
 
Date/Time
EST
Temp
°C
App
Temp
°C
Dew
Point
Rel
Hum
%
Delta-T
°C
Wind Press
QNH
hPa
Press
MSL
hPa
Rain
since 9 am
mm
Dir
 
Spd
km/h
Gust
km/h
Spd
kts
Gust
kts
29/11:30pm 8.6 6.9 7.4 92 0.6 S 6 7 3 4 1029.0 1029.1 0.0
29/11:00pm 8.9 7.1 8.0 94 0.4 SW 7 11 4 6 1029.3 1029.4 0.0
29/10:30pm 8.6 8.1 7.7 94 0.4 CALM 0 0 0 0 1029.5 1029.6 0.0
29/10:00pm 8.4 7.4 7.5 94 0.4 NNE 2 6 1 3 1029.4 1029.5 0.0
29/09:30pm 8.4 6.5 7.6 95 0.4 NNE 7 9 4 5 1029.7 1029.8 0.0
29/09:00pm 7.8 6.0 7.1 95 0.3 ESE 6 6 3 3 1029.9 1030.0 0.0
29/08:30pm 7.1 4.9 6.0 93 0.5 ESE 7 7 4 4 1029.9 1030.0 0.0
29/08:00pm 6.9 4.6 5.7 92 0.5 ESE 7 9 4 5 1029.8 1029.9 0.0
29/07:30pm 7.2 4.6 6.0 92 0.5 E 9 11 5 6 1029.5 1029.6 0.0
29/07:00pm 7.4 4.8 5.9 90 0.7 E 9 11 5 6 1029.5 1029.6 0.0
29/06:30pm 8.2 5.6 6.2 87 0.9 ENE 9 9 5 5 1029.4 1029.5 0.0
29/06:00pm 9.3 6.8 6.6 83 1.3 ENE 9 11 5 6 1029.0 1029.1 0.0
29/05:30pm 11.0 8.6 6.9 76 2.0 E 9 11 5 6 1028.8 1028.9 0.0
29/05:00pm 12.4 9.7 7.5 72 2.4 ESE 11 13 6 7 1029.0 1029.1 0.0
29/04:30pm 12.3 10.0 7.4 72 2.4 ESE 9 11 5 6 1029.2 1029.3 0.0
29/04:00pm 12.6 10.3 7.5 71 2.5 SE 9 13 5 7 1029.0 1029.1 0.0
29/03:30pm 12.3 9.5 6.8 69 2.6 SSE 11 13 6 7 1029.1 1029.2 0.0

Other Formats:

Comma delimited format used in spreadsheet applications
http://www.bom.gov.au/fwo/IDN60801/IDN60801.95695.axf

JavaScript Object Notation format (JSON) in row-major order
http://www.bom.gov.au/fwo/IDN60801/IDN60801.95695.json